Station info - map view · info · telemetry · weather · raw · status · beacons · messages · bulletins · browse · moving · my account
Callsign, ship name or locator: Clear       
It is possible to search using wildcards (*?) after a prefix. Example: OH*
APRS station DJ1JAY-14 - show graphs
Map loading...
Comment: 145.762MHz Jens @Work www.db0fts.de
Mic-E message: En route
Location: 50°34.36' N 10°25.68' E - locator JO50FN17IK - show map - static map
0.7 miles Northeast bearing 59° from Meiningen, Thuringia, Germany [?]
2.3 miles Northwest bearing 313° from Ellingshausen, Thuringia, Germany
90.0 miles Southwest bearing 226° from Halle Neustadt, Saxony-Anhalt, Germany
93.6 miles Southwest bearing 227° from Halle (Saale), Saxony-Anhalt, Germany
Last position: 2018-07-13 06:46:29 EDT (10d 6h10m ago)
2018-07-13 12:46:29 CEST local time at Meiningen, Germany [?]
Altitude: 1086 ft
Course: 144°
Speed: 12 MPH
Last telemetry: 2013-07-04 09:19:25 EDT (1845d 3h37m ago) – show telemetry
Ch 1: 485, Ch 2: 663, Ch 3: 0, Ch 4: 0, Ch 5: 0
 1     2     3     4     5     6     7     8 
Device: Yaesu: FTM-350 (rig)
Last path: DJ1JAY-14>UP3T36 via WIDE1-1,WIDE2-2,qAR,DF0MGN (good)
Positions stored: 420867
Other SSIDs: DJ1JAY DJ1JAY-10 DJ1JAY-13 DJ1JAY-15 DJ1JAY-16 DJ1JAY-2 DJ1JAY-4 DJ1JAY-5 DJ1JAY-6 DJ1JAY-7 DJ1JAY-8 DJ1JAY-9 DJ1JAY-B DJ1JAY-DP DJ1JAY-R DJ1JAY-Y
Stations near current position of DJ1JAY-14 - show more
callsign distance last heard - EDT      callsign distance last heard - EDT
DB0MGN0.0 yards 0°2018-07-23 12:52:44 DJ1JAY-613.1 yards 90°2018-07-13 06:47:44
DJ1JAY-713.1 yards 270°2018-07-14 16:07:18 ER-DB0MGN47.5 yards 32°2018-07-23 02:45:20
PS-DB0MGN62.2 yards 348°2018-06-30 08:00:37 DH4BM-10229.5 yards 167°2018-07-14 15:48:19
DL1NOS-9240.6 yards 295°2018-07-22 14:03:11 DB0MGN-10505.7 yards 1°2018-07-23 12:55:33
DF0MGN0.3 miles 342°2018-07-23 12:53:39 DJ1JAY-130.4 miles 281°2018-07-23 12:40:23
P0650641_1.8 miles 53°2018-07-17 21:16:48 P0650638_2.1 miles 264°2018-07-18 08:15:20
P06506382.5 miles 273°2018-07-18 08:14:37 P06506412.9 miles 5°2018-07-17 21:16:36
P0650722_4.3 miles 316°2018-07-17 09:21:52 P0940255_4.4 miles 104°2018-07-03 20:03:03
P06507255.1 miles 347°2018-07-21 21:13:08 P09402555.6 miles 82°2018-07-03 20:41:09
P06507226.0 miles 316°2018-07-17 09:21:53 P0650725_6.4 miles 344°2018-07-21 21:14:01
Stations which heard DJ1JAY-14 directly on radio –
callsign pkts first heard - EDT last heard longest (tx => rx) longest at - EDT
DB0YQ 1 2018-07-05 12:51:36 2018-07-05 12:51:36 JO50AM > JN69CQ 111.8 miles 121° 2018-07-05 12:51:36
DB0MZG-2 1 2018-07-11 10:22:57 2018-07-11 10:22:57 JN39QF > JN39GK 39.0 miles 291° 2018-07-11 10:22:57
DB0MI 24 2018-07-02 05:42:57 2018-07-12 06:50:35 JO40DD > JN49PS 51.0 miles 120° 2018-07-02 06:26:44
DO0YA-4 158 2018-07-02 12:09:00 2018-07-12 04:26:20 JN39QE > JN39OJ 16.3 miles 332° 2018-07-11 15:52:07
DB0MYK 55 2018-07-02 06:53:18 2018-07-02 10:38:48 JO30WK > JO30OJ 31.0 miles 264° 2018-07-02 06:53:18
DB0GV 14 2018-07-02 05:40:50 2018-07-12 06:36:37 JO40NE > JO40KD 13.6 miles 251° 2018-07-02 05:40:50
DB0KT 139 2018-07-02 04:33:54 2018-07-12 07:21:26 JN39XO > JO40PL 84.7 miles 43° 2018-07-02 11:27:22
DB0IDS 20 2018-07-02 05:48:13 2018-07-10 02:40:18 JN49AR > JO40CF 35.2 miles 12° 2018-07-02 11:16:11
DB0RIE 5 2018-07-02 04:33:20 2018-07-12 08:41:19 JO50AM > JO50NV 53.6 miles 61° 2018-07-12 08:39:19
DB0ASF 80 2018-07-02 05:36:43 2018-07-12 06:52:55 JN49DX > JO40JN 44.9 miles 27° 2018-07-05 10:20:05
DB0REN 6 2018-07-02 04:28:13 2018-07-12 08:41:19 JO50AM > JO50RK 60.7 miles 95° 2018-07-09 03:56:06
DB0XIN 18 2018-07-02 06:06:08 2018-07-12 06:15:13 JN49AR > JN49FW 23.1 miles 46° 2018-07-02 11:16:29
DB0NY 6 2018-07-02 06:59:09 2018-07-02 09:08:51 JO30SH > JO31TB 50.7 miles 5° 2018-07-02 09:08:51
DB0XIT 118 2018-07-02 11:40:25 2018-07-12 05:06:32 JN39VL > JN39MI 36.0 miles 257° 2018-07-12 05:06:32
DB0WZ 6 2018-07-05 12:36:38 2018-07-12 08:45:02 JO50BM > JN49WS 52.9 miles 192° 2018-07-12 08:45:02
DB0BOS 10 2018-07-02 05:42:57 2018-07-12 05:32:44 JN49BR > JN49LR 37.3 miles 90° 2018-07-02 11:14:56
DB0ZAV-1 17 2018-07-02 05:51:24 2018-07-10 09:19:39 JO40KB > JO40JF 11.3 miles 340° 2018-07-02 05:57:37
DB0TAN 131 2018-07-02 04:15:46 2018-07-13 06:46:44 JO50HO > JO40XL 31.6 miles 257° 2018-07-13 02:57:58
DO6WN 1 2018-07-02 11:16:49 2018-07-02 11:16:49 JN49AR > JN49EP 14.3 miles 110° 2018-07-02 11:16:49
DB0LJ-1 6 2018-07-02 06:54:01 2018-07-02 07:08:26 JO30WK > JO30QJ 24.5 miles 259° 2018-07-02 06:54:01
DB0FTC 31 2018-07-02 10:40:33 2018-07-12 05:37:16 JO30TB > JN49BO 41.1 miles 144° 2018-07-02 10:40:33
DB0KL-4 116 2018-07-02 11:06:53 2018-07-12 05:56:54 JN49CW > JN39VK 40.5 miles 210° 2018-07-12 05:56:54
DB3FAT 22 2018-07-02 05:40:22 2018-07-12 06:35:31 JO40HE > JO40MD 17.3 miles 103° 2018-07-10 02:52:54
F5ZEE 9 2018-07-03 11:15:23 2018-07-11 15:58:06 JN39OH > JN38TX 31.1 miles 141° 2018-07-03 12:42:18
F6KFH-2 1 2018-07-11 15:53:07 2018-07-11 15:53:07 JN39QE > JN39MA 18.2 miles 235° 2018-07-11 15:53:07
DB0HU 1 2018-07-05 11:16:30 2018-07-05 11:16:30 JO40LD > JO40LC 1.9 miles 229° 2018-07-05 11:16:30
DB0FUL 153 2018-07-02 04:16:06 2018-07-12 08:54:31 JO40PF > JO40UO 31.6 miles 34° 2018-07-12 06:57:32
DB0SON-3 1 2018-07-02 04:28:54 2018-07-02 04:28:54 JO50BM > JO50OJ 48.7 miles 102° 2018-07-02 04:28:54
DB0NU 2 2018-07-02 04:28:34 2018-07-05 12:58:00 JO50BM > JO50IE 37.3 miles 131° 2018-07-02 04:28:34
DJ8HS-1 36 2018-07-02 06:16:42 2018-07-12 06:09:08 JO30TD > JO40CB 27.7 miles 105° 2018-07-02 10:35:49
DB0HWR-5 3 2018-07-11 03:15:11 2018-07-11 16:05:57 JN39PG > JN39JN 31.1 miles 311° 2018-07-11 16:05:57
DB0FDA 64 2018-07-02 05:58:04 2018-07-12 06:20:15 JO30TD > JN49HU 50.3 miles 113° 2018-07-02 10:35:52
DL1FX 2 2018-07-02 06:17:08 2018-07-02 06:18:39 JO40EB > JN49GR 23.3 miles 159° 2018-07-02 06:18:39
DB0FTS-10 115 2018-07-02 03:54:37 2018-07-13 06:40:35 JO40XM > JO50IO 35.8 miles 80° 2018-07-09 04:10:45
DC4ZZ 70 2018-07-02 05:39:18 2018-07-12 06:54:24 JO40HE > JO40LC 14.0 miles 112° 2018-07-10 02:54:20
DC1MD-10 5 2018-07-02 05:42:53 2018-07-12 06:51:39 JO40LD > JO40MF 5.5 miles 22° 2018-07-02 05:48:35
DL2WB-10 599 2018-07-02 11:49:56 2018-07-12 05:05:47 JN49BR > JN39QH 41.2 miles 227° 2018-07-10 10:10:29
DG7NFG-11 4 2018-07-02 05:44:14 2018-07-12 06:34:25 JO40KB > JN49PX 18.1 miles 108° 2018-07-12 06:34:25
DB0WIM 1 2018-07-12 05:23:05 2018-07-12 05:23:05 JN49AP > JN49CD 36.5 miles 165° 2018-07-12 05:23:05
DB0LDK 15 2018-07-02 06:32:22 2018-07-12 08:22:08 JO40WM > JO40GM 60.4 miles 272° 2018-07-12 08:22:08
DL1JU-13 50 2018-07-02 06:11:17 2018-07-12 06:23:26 JO30UA > JO40EA 29.4 miles 89° 2018-07-02 10:45:45
DG7FDL-10 3 2018-07-02 04:34:15 2018-07-12 08:33:38 JO50AM > JO40UU 28.9 miles 329° 2018-07-09 03:58:31
DL7FCG 58 2018-07-02 05:41:45 2018-07-12 06:42:51 JO40CG > JO40MD 36.2 miles 105° 2018-07-02 06:34:37
DB0ESG-10 20 2018-07-02 10:53:58 2018-07-12 05:55:42 JN39XO > JN39XX 26.7 miles 358° 2018-07-10 10:22:44
DO0YA-3 2 2018-07-04 03:05:13 2018-07-04 03:12:11 JN39QH > JN39OJ 8.2 miles 310° 2018-07-04 03:12:11
DB0NIS-10 2 2018-07-02 07:07:03 2018-07-02 07:08:00 JO30TJ > JO30EP 55.3 miles 289° 2018-07-02 07:07:03
DB5WY-13 16 2018-07-02 06:32:47 2018-07-05 10:22:53 JN49EX > JO30XO 45.9 miles 338° 2018-07-05 10:22:53
DB0UT-10 142 2018-07-02 10:18:40 2018-07-12 05:18:03 JN49AR > JN39NR 43.0 miles 272° 2018-07-10 10:10:56
DL9FCV-10 59 2018-07-02 05:28:23 2018-07-12 07:03:54 JO40QH > JO40NF 13.4 miles 242° 2018-07-12 07:03:54
DB0SWR-10 7 2018-07-02 04:45:44 2018-07-13 02:57:13 JO50HO > JN49RQ 82.0 miles 220° 2018-07-13 02:57:13
DB0ADB-10 3 2018-07-05 12:53:55 2018-07-13 02:57:32 JO50AM > JN59KV 56.0 miles 141° 2018-07-09 03:56:00
F8EBY-2 1 2018-07-05 03:30:11 2018-07-05 03:30:11 JN39QG > JN38BU 63.5 miles 244° 2018-07-05 03:30:11
DL0SZM-10 91 2018-07-02 04:07:16 2018-07-06 07:51:18 JO50AM > JO50IP 30.0 miles 74° 2018-07-05 12:49:52
DB0HAS-10 4 2018-07-02 04:29:12 2018-07-12 08:37:15 JO50AM > JO50HA 42.0 miles 147° 2018-07-05 12:50:51
DB0INS 29 2018-07-02 04:05:12 2018-07-13 06:42:59 JO40WM > JO50FU 33.4 miles 47° 2018-07-02 04:45:25
DB0DIG 2 2018-07-11 10:20:09 2018-07-11 10:30:34 JN39QF > JN39TE 11.7 miles 103° 2018-07-11 10:20:09
DB0VKL-10 7 2018-07-11 03:16:14 2018-07-11 10:29:16 JN39QE > JN39KG 24.5 miles 282° 2018-07-11 10:29:16
DB0GIS-10 53 2018-07-02 04:33:52 2018-07-12 08:34:22 JN49BS > JO40JN 59.7 miles 28° 2018-07-05 10:04:12
DB0KLN 1 2018-07-05 09:35:11 2018-07-05 09:35:11 JN39UK > JN39VK 2.1 miles 87° 2018-07-05 09:35:11
DB0AIS 108 2018-07-02 06:04:56 2018-07-12 06:33:06 JN49AQ > JN49HX 30.8 miles 50° 2018-07-05 09:58:13
DB0NRP-10 91 2018-07-02 12:06:45 2018-07-12 04:28:41 JN39OH > JN39QG 9.2 miles 119° 2018-07-10 11:33:49
DB0SLF 3 2018-07-12 08:36:55 2018-07-12 08:41:19 JO50AM > JO50QP 55.8 miles 82° 2018-07-12 08:36:55
DF0MGN 85 2018-07-02 03:54:35 2018-07-13 06:46:29 JO50AM > JO50FN 15.5 miles 76° 2018-07-09 03:55:40
DG6FDV-10 3 2018-07-02 05:40:23 2018-07-02 05:55:40 JO40NE > JO40KF 13.0 miles 281° 2018-07-02 05:40:23
DB0FGB 15 2018-07-02 04:25:17 2018-07-12 08:39:02 JO50AM > JO50WB 85.6 miles 111° 2018-07-05 12:48:55

Only position packets which were originated by the station are shown here. The range statistics show some extra long hops, because some digipeaters do not correctly add themselves to the digipeater path. Please check the raw packets.
About this site
This page shows real-time information collected from the Automatic Position Reporting System Internet network (APRS-IS). APRS is used by amateur (ham) radio operators to transmit real-time position information, weather data, telemetry and messages over the radio. A vehicle equipped with a GPS receiver, a VHF transmitter or HF transceiver and a small computer device called a tracker transmits it's location, speed and course in a small data packet, which is then received by a nearby iGate receiving site which forwards the packet on the Internet. Systems connected to the Internet can send information on the APRS-IS without a radio transmitter, or collect and display information transmitted anywhere in the world.
FAQ · Blog · Discussion group · Linking to aprs.fi · AIS sites · Service status · Database statistics · Advertising on aprs.fi · Technical details · API · Change log · Planned changes · Credits and thanks · Terms Of Service · iPhone/iPad APRS